createdAt,value
2022-07-30T00:04:15.478Z,100881.42
2022-07-30T00:09:14.944Z,100884.70999999999
2022-07-30T00:14:15.170Z,100887.62000000001
2022-07-30T00:19:15.344Z,100887.77
2022-07-30T00:23:27.244Z,100881.86
2022-07-30T00:24:15.287Z,100881.86
2022-07-30T00:26:03.738Z,100882.20999999999
2022-07-30T00:28:12.563Z,100882.20999999999
2022-07-30T00:29:15.381Z,100882.20999999999
2022-07-30T00:34:15.267Z,100868.11
2022-07-30T00:39:16.619Z,100861.19
2022-07-30T00:44:14.830Z,100855.53
2022-07-30T00:49:16.353Z,100856.72
2022-07-30T00:54:15.906Z,100848.95
2022-07-30T00:54:23.776Z,100848.95
2022-07-30T00:59:15.472Z,100846.34
2022-07-30T01:04:14.972Z,100835.86
2022-07-30T01:09:14.840Z,100833.47
2022-07-30T01:14:14.964Z,100827.43000000001
2022-07-30T01:19:30.657Z,100830.42
2022-07-30T01:24:26.448Z,100826.5
2022-07-30T01:27:57.361Z,100817.11
2022-07-30T01:29:15.878Z,100817.11
2022-07-30T01:31:59.029Z,100809.59
2022-07-30T01:34:16.470Z,100809.59
2022-07-30T01:39:17.350Z,100810.02
2022-07-30T01:44:16.687Z,100808.51
2022-07-30T01:49:15.566Z,100810.31
2022-07-30T01:54:23.992Z,100801.19
2022-07-30T01:59:18.745Z,100792.5
2022-07-30T02:04:17.444Z,100781.83
2022-07-30T02:05:51.394Z,100777.76
2022-07-30T02:09:21.552Z,100777.76
2022-07-30T02:14:21.153Z,100772.62
2022-07-30T02:19:17.095Z,100775.61
2022-07-30T02:23:21.348Z,100770.98
2022-07-30T02:24:20.890Z,100770.98
2022-07-30T02:26:26.255Z,100770.87
2022-07-30T02:28:01.577Z,100770.87
2022-07-30T02:29:17.155Z,100770.87
2022-07-30T02:31:34.568Z,100773.75
2022-07-30T02:34:15.873Z,100773.75
2022-07-30T02:37:42.913Z,100769.31
2022-07-30T02:39:16.080Z,100769.31
2022-07-30T02:44:16.533Z,100757.17
2022-07-30T02:49:18.576Z,100750.45
2022-07-30T02:54:18.677Z,100742.74
2022-07-30T02:59:17.740Z,100737.09999999999
2022-07-30T03:04:18.226Z,100730.5
2022-07-30T03:09:16.760Z,100724.90000000001
2022-07-30T03:14:15.045Z,100720.46
2022-07-30T03:19:22.788Z,100712.35
2022-07-30T03:24:16.259Z,100709.39
2022-07-30T03:29:21.919Z,100716.76999999999
2022-07-30T03:34:16.290Z,100713.16
2022-07-30T03:39:16.566Z,100713.16
2022-07-30T03:44:15.584Z,100707.45
2022-07-30T03:49:16.304Z,100701.17
2022-07-30T03:54:15.238Z,100702.65000000001
2022-07-30T03:59:16.238Z,100708.67
2022-07-30T04:04:15.554Z,100709.39
2022-07-30T04:09:15.028Z,100710.20999999999
2022-07-30T04:14:14.971Z,100724.7
2022-07-30T04:19:21.013Z,100727.86
2022-07-30T04:24:01.844Z,100723.81
2022-07-30T04:24:16.206Z,100723.81
2022-07-30T04:28:50.618Z,100727.11
2022-07-30T04:29:18.096Z,100727.11
2022-07-30T04:34:15.578Z,100718.89
2022-07-30T04:39:16.652Z,100721.23
2022-07-30T04:44:14.852Z,100717.5
2022-07-30T04:49:18.211Z,100712.73999999999
2022-07-30T04:54:20.696Z,100712.79
2022-07-30T04:59:16.426Z,100715.5
2022-07-30T05:04:15.969Z,100706.03
2022-07-30T05:09:15.157Z,100714.12
2022-07-30T05:14:12.832Z,100706.46
2022-07-30T05:14:14.370Z,100706.46
2022-07-30T05:19:16.169Z,100691.52
2022-07-30T05:24:14.728Z,100692.1
2022-07-30T05:29:19.969Z,100698.12
2022-07-30T05:34:16.335Z,100695.94
2022-07-30T05:39:15.314Z,100695.89
2022-07-30T05:44:17.064Z,100690.59
2022-07-30T05:49:14.995Z,100689.81
2022-07-30T05:54:14.720Z,100698.82
2022-07-30T05:59:14.720Z,100697.05
2022-07-30T06:04:15.420Z,100695.56999999999
2022-07-30T06:04:51.937Z,100695.56999999999
2022-07-30T06:09:14.705Z,100690.41
2022-07-30T06:14:14.754Z,100684.19
2022-07-30T06:19:20.402Z,100679.97
2022-07-30T06:24:14.829Z,100683.32
2022-07-30T06:26:17.785Z,100693.19
2022-07-30T06:29:15.091Z,100693.19
2022-07-30T06:34:15.069Z,100688.23
2022-07-30T06:39:14.854Z,100689.23
2022-07-30T06:44:14.897Z,100678.92
2022-07-30T06:49:17.972Z,100670.86
2022-07-30T06:54:14.634Z,100668.47
2022-07-30T06:59:14.825Z,100675.12000000001
2022-07-30T07:04:15.418Z,100679.40999999999
2022-07-30T07:09:14.869Z,100673.89
2022-07-30T07:14:14.920Z,100667.58
2022-07-30T07:19:15.428Z,100662.62000000001
2022-07-30T07:24:14.878Z,100659.84999999999
2022-07-30T07:29:15.113Z,100657.81
2022-07-30T07:34:17.139Z,100640.39
2022-07-30T07:38:02.547Z,100631.43
2022-07-30T07:39:15.091Z,100631.43
2022-07-30T07:39:56.880Z,100629.28
2022-07-30T07:41:57.525Z,100629.28
2022-07-30T07:44:20.165Z,100629.28
2022-07-30T07:46:37.148Z,100627.92
2022-07-30T07:48:28.193Z,100627.92
2022-07-30T07:49:14.729Z,100627.92
2022-07-30T07:54:21.514Z,100634.01
2022-07-30T07:59:15.737Z,100629.35
2022-07-30T08:04:14.623Z,100627.59999999999
2022-07-30T08:09:14.805Z,100621.25
2022-07-30T08:14:15.432Z,100616.38
2022-07-30T08:19:14.753Z,100613.67
2022-07-30T08:24:14.664Z,100612.09
2022-07-30T08:29:17.229Z,100605.35
2022-07-30T08:33:45.752Z,100601.59
2022-07-30T08:34:15.156Z,100601.59
2022-07-30T08:39:14.996Z,100598.28
2022-07-30T08:44:17.680Z,100602.39
2022-07-30T08:49:15.251Z,100599.65999999999
2022-07-30T08:54:15.953Z,100596.53
2022-07-30T08:59:15.908Z,100603.2
2022-07-30T09:04:14.680Z,100598.0
2022-07-30T09:09:20.015Z,100592.47
2022-07-30T09:14:14.953Z,100593.61
2022-07-30T09:19:17.215Z,100591.14
2022-07-30T09:24:14.588Z,100583.74
2022-07-30T09:28:30.639Z,100569.28
2022-07-30T09:29:15.786Z,100569.28
2022-07-30T09:34:24.149Z,100575.29
2022-07-30T09:37:46.924Z,100572.93
2022-07-30T09:39:28.338Z,100572.93
2022-07-30T09:41:38.878Z,100576.42
2022-07-30T09:44:23.437Z,100576.42
2022-07-30T09:44:32.817Z,100576.42
2022-07-30T09:46:49.914Z,100580.02
2022-07-30T09:49:15.814Z,100580.02
2022-07-30T09:54:15.795Z,100574.65999999999
2022-07-30T09:58:38.734Z,100571.09
2022-07-30T09:59:25.720Z,100571.09
2022-07-30T10:04:23.622Z,100567.58
2022-07-30T10:09:24.212Z,100562.14
2022-07-30T10:14:15.923Z,100554.8
2022-07-30T10:19:18.191Z,100565.61
2022-07-30T10:24:16.915Z,100573.85
2022-07-30T10:29:17.157Z,100584.67000000001
2022-07-30T10:34:23.601Z,100590.41
2022-07-30T10:39:19.518Z,100588.62000000001
2022-07-30T10:44:35.043Z,100590.03
2022-07-30T10:49:18.756Z,100587.23
2022-07-30T10:54:39.177Z,100583.14
2022-07-30T10:59:14.942Z,100586.97
2022-07-30T11:04:20.281Z,100587.01
2022-07-30T11:09:34.403Z,100587.7
2022-07-30T11:14:15.326Z,100598.06999999999
2022-07-30T11:19:56.839Z,100597.18000000001
2022-07-30T11:24:34.396Z,100596.65
2022-07-30T11:29:50.599Z,100586.78
2022-07-30T11:34:26.662Z,100574.53
2022-07-30T11:39:15.373Z,100580.35
2022-07-30T11:44:25.321Z,100575.98000000001
2022-07-30T11:49:14.939Z,100576.67
2022-07-30T11:54:15.664Z,100578.72
2022-07-30T11:59:14.609Z,100582.17
2022-07-30T12:04:14.555Z,100579.17
2022-07-30T12:09:22.712Z,100565.03
2022-07-30T12:14:15.558Z,100566.0
2022-07-30T12:19:14.566Z,100556.6
2022-07-30T12:24:15.414Z,100552.66
2022-07-30T12:29:14.710Z,100545.17
2022-07-30T12:34:19.326Z,100541.66
2022-07-30T12:39:19.922Z,100533.33
2022-07-30T12:44:34.312Z,100536.90000000001
2022-07-30T12:49:21.425Z,100522.77
2022-07-30T12:54:17.431Z,100517.3
2022-07-30T12:59:20.828Z,100518.83
2022-07-30T13:04:14.972Z,100507.98999999999
2022-07-30T13:09:19.140Z,100509.58
2022-07-30T13:14:16.063Z,100509.09
2022-07-30T13:19:14.746Z,100509.27
2022-07-30T13:24:18.096Z,100509.86
2022-07-30T13:29:14.803Z,100507.83
2022-07-30T13:34:19.163Z,100498.8
2022-07-30T13:39:14.502Z,100500.94
2022-07-30T13:44:15.029Z,100502.44
2022-07-30T13:49:14.643Z,100503.3
2022-07-30T13:54:14.605Z,100501.2
2022-07-30T13:59:14.750Z,100491.23
2022-07-30T14:04:15.051Z,100481.64
2022-07-30T14:09:14.494Z,100473.95
2022-07-30T14:14:14.471Z,100463.51
2022-07-30T14:19:23.741Z,100463.81
2022-07-30T14:24:15.534Z,100451.88
2022-07-30T14:29:14.621Z,100438.89
2022-07-30T14:34:16.779Z,100429.63
2022-07-30T14:39:14.437Z,100425.98000000001
2022-07-30T14:44:14.948Z,100417.61
2022-07-30T14:49:15.578Z,100413.56
2022-07-30T14:54:14.669Z,100413.85
2022-07-30T14:59:19.531Z,100410.25
2022-07-30T15:04:14.639Z,100411.71
2022-07-30T15:09:14.648Z,100404.25
2022-07-30T15:14:15.022Z,100404.25
2022-07-30T15:19:14.523Z,100395.39
2022-07-30T15:24:14.688Z,100386.99
2022-07-30T15:29:15.155Z,100386.41
2022-07-30T15:34:14.367Z,100381.17
2022-07-30T15:39:15.519Z,100377.8
2022-07-30T15:44:14.821Z,100373.35
2022-07-30T15:49:14.971Z,100360.86
2022-07-30T15:54:15.872Z,100362.56
2022-07-30T15:59:14.437Z,100351.67
2022-07-30T16:04:19.539Z,100344.26
2022-07-30T16:09:15.067Z,100343.22
2022-07-30T16:14:18.188Z,100333.42
2022-07-30T16:19:14.563Z,100321.12
2022-07-30T16:24:20.098Z,100324.2
2022-07-30T16:29:14.318Z,100325.39
2022-07-30T16:34:15.573Z,100317.85
2022-07-30T16:39:14.810Z,100320.31
2022-07-30T16:44:15.066Z,100319.48
2022-07-30T16:49:14.772Z,100319.67
2022-07-30T16:54:16.455Z,100313.36
2022-07-30T16:59:16.124Z,100305.16
2022-07-30T17:04:15.141Z,100307.01000000001
2022-07-30T17:09:15.976Z,100307.26
2022-07-30T17:14:14.752Z,100313.72
2022-07-30T17:19:14.361Z,100317.44
2022-07-30T17:24:14.847Z,100325.33
2022-07-30T17:29:15.632Z,100320.98999999999
2022-07-30T17:34:19.097Z,100327.01
2022-07-30T17:39:18.165Z,100323.28
2022-07-30T17:44:14.369Z,100321.6
2022-07-30T17:49:19.480Z,100326.31
2022-07-30T17:54:15.129Z,100320.53
2022-07-30T17:59:15.600Z,100320.81
2022-07-30T18:04:14.347Z,100322.41
2022-07-30T18:09:15.023Z,100308.4
2022-07-30T18:14:14.580Z,100302.73
2022-07-30T18:19:22.568Z,100285.86
2022-07-30T18:24:15.090Z,100290.4
2022-07-30T18:29:14.362Z,100279.13
2022-07-30T18:34:14.597Z,100271.48
2022-07-30T18:39:14.806Z,100280.5
2022-07-30T18:44:14.343Z,100278.88
2022-07-30T18:49:26.955Z,100268.11
2022-07-30T18:54:15.976Z,100276.17
2022-07-30T18:59:14.612Z,100285.44
2022-07-30T19:04:15.730Z,100271.44
2022-07-30T19:09:17.580Z,100255.28
2022-07-30T19:14:14.845Z,100251.67
2022-07-30T19:19:14.521Z,100249.03
2022-07-30T19:24:16.959Z,100255.21
2022-07-30T19:29:14.283Z,100260.88
2022-07-30T19:34:14.376Z,100269.87000000001
2022-07-30T19:39:21.636Z,100264.03
2022-07-30T19:44:18.542Z,100258.72
2022-07-30T19:49:14.733Z,100261.77
2022-07-30T19:54:15.794Z,100251.58
2022-07-30T19:59:15.196Z,100240.11
2022-07-30T20:04:14.458Z,100230.55
2022-07-30T20:09:15.449Z,100219.44
2022-07-30T20:14:16.202Z,100207.67
2022-07-30T20:19:15.779Z,100200.39
2022-07-30T20:24:17.055Z,100193.62999999999
2022-07-30T20:29:19.180Z,100197.34
2022-07-30T20:34:16.311Z,100188.59
2022-07-30T20:39:18.326Z,100185.85
2022-07-30T20:44:23.372Z,100186.06
2022-07-30T20:49:19.695Z,100180.38
2022-07-30T20:54:14.193Z,100181.86
2022-07-30T20:59:14.879Z,100192.22
2022-07-30T21:04:24.009Z,100206.2
2022-07-30T21:09:14.420Z,100219.14
2022-07-30T21:14:14.281Z,100255.94
2022-07-30T21:19:16.384Z,100227.84
2022-07-30T21:24:17.654Z,100213.42
2022-07-30T21:29:14.836Z,100209.27
2022-07-30T21:34:07.022Z,100223.22
2022-07-30T21:34:14.166Z,100223.22
2022-07-30T21:39:14.382Z,100228.36
2022-07-30T21:44:15.193Z,100231.44
2022-07-30T21:49:14.212Z,100224.59
2022-07-30T21:59:14.816Z,100210.31
2022-07-30T22:04:14.296Z,100204.08
2022-07-30T22:09:19.675Z,100197.85
2022-07-30T22:14:18.165Z,100191.09
2022-07-30T22:19:14.724Z,100180.54
2022-07-30T22:24:29.806Z,100166.24
2022-07-30T22:29:14.487Z,100166.94
2022-07-30T22:34:16.773Z,100149.45999999999
2022-07-30T22:39:14.602Z,100144.12
2022-07-30T22:44:15.013Z,100137.98000000001
2022-07-30T22:54:14.179Z,100124.33
2022-07-30T22:59:15.546Z,100120.01000000001
2022-07-30T23:04:14.140Z,100122.06
2022-07-30T23:09:14.222Z,100112.49
2022-07-30T23:12:27.818Z,100214.84
2022-07-30T23:12:30.540Z,100138.45
2022-07-30T23:14:15.388Z,100107.4
2022-07-30T23:19:21.759Z,100102.59
2022-07-30T23:24:17.763Z,100096.03
2022-07-30T23:29:15.914Z,100090.64
2022-07-30T23:34:14.508Z,100084.17
2022-07-30T23:39:18.634Z,100083.53
2022-07-30T23:44:14.123Z,100082.06999999999
2022-07-30T23:49:14.605Z,100074.73
2022-07-30T23:54:14.253Z,100071.92
2022-07-30T23:59:14.339Z,100069.58
